SKW5684 KIAH-KBHM
Flight info
| Callsign | SKW5684 |
|---|---|
| Flight time | N/A |
| Altitude | 33000 |
| Route | STRYA8 DPATY MEI LYMPH |
| Aircraft | E75L/M-SDE3GILORVW/S |
Departure
| Time | N/A |
|---|---|
| Airport | George Bush Intercontinental Airport (KIAH) |
Arrival
| Time | 2026-05-03 21:26 |
|---|---|
| Airport | Birmingham-Shuttlesworth International Airport (KBHM) |
| Time | Latitude | Longitude | Altitude | Speed | Heading |
|---|---|---|---|---|---|
| 2026-05-03 20:15 | 30.83609 | -94.67413 | 33200 ft | 426 kts | 21° |
| 2026-05-03 20:15 | 30.88546 | -94.63595 | 33230 ft | 427 kts | 22° |
| 2026-05-03 20:16 | 30.93497 | -94.59765 | 33194 ft | 427 kts | 22° |
| 2026-05-03 20:16 | 30.98419 | -94.55866 | 33198 ft | 436 kts | 28° |
| 2026-05-03 20:16 | 31.00635 | -94.53446 | 33189 ft | 449 kts | 38° |
| 2026-05-03 20:17 | 31.02552 | -94.50515 | 33192 ft | 462 kts | 48° |
| 2026-05-03 20:17 | 31.05410 | -94.43657 | 33201 ft | 475 kts | 59° |
| 2026-05-03 20:18 | 31.08225 | -94.36762 | 33191 ft | 470 kts | 54° |
| 2026-05-03 20:18 | 31.11152 | -94.29945 | 33194 ft | 470 kts | 54° |
| 2026-05-03 20:19 | 31.14055 | -94.23177 | 33196 ft | 470 kts | 54° |
| 2026-05-03 20:19 | 31.16980 | -94.16354 | 33208 ft | 470 kts | 55° |
| 2026-05-03 20:20 | 31.19880 | -94.09555 | 33199 ft | 467 kts | 55° |
| 2026-05-03 20:20 | 31.22774 | -94.02767 | 33188 ft | 467 kts | 55° |
| 2026-05-03 20:21 | 31.25645 | -93.96018 | 33199 ft | 467 kts | 56° |
| 2026-05-03 20:21 | 31.28532 | -93.89221 | 33191 ft | 467 kts | 56° |
| 2026-05-03 20:22 | 31.31275 | -93.82316 | 33194 ft | 472 kts | 60° |
| 2026-05-03 20:22 | 31.33753 | -93.75217 | 33192 ft | 471 kts | 60° |
| 2026-05-03 20:23 | 31.36200 | -93.68101 | 33195 ft | 472 kts | 60° |
| 2026-05-03 20:23 | 31.38629 | -93.61031 | 33189 ft | 471 kts | 60° |
| 2026-05-03 20:24 | 31.41070 | -93.53908 | 33190 ft | 472 kts | 60° |
| 2026-05-03 20:24 | 31.43508 | -93.46782 | 33193 ft | 472 kts | 60° |
| 2026-05-03 20:25 | 31.45943 | -93.39651 | 33184 ft | 471 kts | 60° |
| 2026-05-03 20:25 | 31.48372 | -93.32521 | 33217 ft | 468 kts | 61° |
| 2026-05-03 20:26 | 31.50758 | -93.25502 | 33187 ft | 467 kts | 61° |
| 2026-05-03 20:26 | 31.53155 | -93.18435 | 33187 ft | 467 kts | 61° |
| 2026-05-03 20:27 | 31.55551 | -93.11358 | 33183 ft | 467 kts | 61° |
| 2026-05-03 20:27 | 31.57942 | -93.04278 | 33215 ft | 466 kts | 61° |
| 2026-05-03 20:28 | 31.60322 | -92.97217 | 33175 ft | 465 kts | 61° |
| 2026-05-03 20:28 | 31.62680 | -92.90206 | 33192 ft | 465 kts | 61° |
| 2026-05-03 20:29 | 31.65054 | -92.83132 | 33182 ft | 465 kts | 61° |
| 2026-05-03 20:29 | 31.67421 | -92.76066 | 33192 ft | 466 kts | 61° |
| 2026-05-03 20:30 | 31.69788 | -92.68982 | 33195 ft | 466 kts | 61° |
| 2026-05-03 20:30 | 31.72133 | -92.61952 | 33202 ft | 465 kts | 62° |
| 2026-05-03 20:31 | 31.74487 | -92.54876 | 33188 ft | 465 kts | 62° |
| 2026-05-03 20:31 | 31.76837 | -92.47799 | 33185 ft | 465 kts | 62° |
| 2026-05-03 20:32 | 31.79168 | -92.40761 | 33186 ft | 459 kts | 62° |
| 2026-05-03 20:32 | 31.81469 | -92.33801 | 33194 ft | 460 kts | 62° |
| 2026-05-03 20:33 | 31.83784 | -92.26792 | 33193 ft | 460 kts | 63° |
| 2026-05-03 20:33 | 31.86089 | -92.19779 | 33181 ft | 460 kts | 63° |
| 2026-05-03 20:34 | 31.88391 | -92.12772 | 33179 ft | 459 kts | 63° |
| 2026-05-03 20:34 | 31.90675 | -92.05802 | 33182 ft | 460 kts | 63° |
| 2026-05-03 20:35 | 31.92972 | -91.98781 | 33178 ft | 460 kts | 63° |
| 2026-05-03 20:35 | 31.95264 | -91.91756 | 33181 ft | 460 kts | 63° |
| 2026-05-03 20:36 | 31.97550 | -91.84735 | 33177 ft | 459 kts | 64° |
| 2026-05-03 20:36 | 31.99816 | -91.77760 | 33185 ft | 459 kts | 64° |
| 2026-05-03 20:37 | 32.01707 | -91.71929 | 33174 ft | 454 kts | 64° |
| 2026-05-03 20:37 | 32.03138 | -91.67497 | 33160 ft | 422 kts | 63° |
| 2026-05-03 20:37 | 32.04156 | -91.64348 | 33142 ft | 401 kts | 63° |
| 2026-05-03 20:37 | 32.05123 | -91.61359 | 33127 ft | 382 kts | 63° |
| 2026-05-03 20:38 | 32.06023 | -91.58471 | 33129 ft | 375 kts | 66° |
| 2026-05-03 20:38 | 32.07413 | -91.52496 | 33212 ft | 379 kts | 72° |
| 2026-05-03 20:39 | 32.08283 | -91.46312 | 33190 ft | 384 kts | 77° |
| 2026-05-03 20:39 | 32.09042 | -91.40087 | 33193 ft | 383 kts | 77° |
| 2026-05-03 20:40 | 32.09794 | -91.33861 | 33188 ft | 383 kts | 77° |
| 2026-05-03 20:40 | 32.10540 | -91.27680 | 33194 ft | 383 kts | 77° |
| 2026-05-03 20:41 | 32.11288 | -91.21452 | 33191 ft | 383 kts | 77° |
| 2026-05-03 20:41 | 32.12034 | -91.15222 | 33197 ft | 383 kts | 77° |
| 2026-05-03 20:42 | 32.12652 | -91.10047 | 33193 ft | 383 kts | 78° |
| 2026-05-03 20:42 | 32.13391 | -91.03822 | 33196 ft | 383 kts | 78° |
| 2026-05-03 20:43 | 32.14246 | -90.96585 | 33184 ft | 383 kts | 78° |
| 2026-05-03 20:43 | 32.14862 | -90.91366 | 33161 ft | 383 kts | 78° |
| 2026-05-03 20:44 | 32.15588 | -90.85179 | 33159 ft | 383 kts | 78° |
| 2026-05-03 20:44 | 32.16315 | -90.78943 | 33164 ft | 383 kts | 78° |
| 2026-05-03 20:45 | 32.17038 | -90.72724 | 33171 ft | 381 kts | 78° |
| 2026-05-03 20:45 | 32.17873 | -90.65521 | 33171 ft | 381 kts | 78° |
| 2026-05-03 20:46 | 32.18472 | -90.60321 | 33173 ft | 382 kts | 78° |
| 2026-05-03 20:46 | 32.19178 | -90.54161 | 33171 ft | 381 kts | 78° |
| 2026-05-03 20:47 | 32.19889 | -90.47953 | 33169 ft | 381 kts | 78° |
| 2026-05-03 20:47 | 32.20593 | -90.41743 | 33168 ft | 381 kts | 78° |
| 2026-05-03 20:48 | 32.21297 | -90.35537 | 33176 ft | 381 kts | 78° |
| 2026-05-03 20:48 | 32.21995 | -90.29343 | 33184 ft | 381 kts | 78° |
| 2026-05-03 20:49 | 32.22686 | -90.23185 | 33178 ft | 381 kts | 78° |
| 2026-05-03 20:49 | 32.23379 | -90.16986 | 33187 ft | 381 kts | 78° |
| 2026-05-03 20:50 | 32.24069 | -90.10785 | 33187 ft | 381 kts | 78° |
| 2026-05-03 20:50 | 32.24755 | -90.04584 | 33179 ft | 381 kts | 78° |
| 2026-05-03 20:51 | 32.25434 | -89.98432 | 33190 ft | 381 kts | 78° |
| 2026-05-03 20:51 | 32.26116 | -89.92206 | 33165 ft | 382 kts | 79° |
| 2026-05-03 20:52 | 32.26795 | -89.85989 | 33171 ft | 382 kts | 79° |
| 2026-05-03 20:52 | 32.27472 | -89.79766 | 33171 ft | 382 kts | 79° |
| 2026-05-03 20:53 | 32.28145 | -89.73544 | 33174 ft | 382 kts | 79° |
| 2026-05-03 20:53 | 32.28812 | -89.67366 | 33169 ft | 382 kts | 79° |
| 2026-05-03 20:54 | 32.29476 | -89.61148 | 33154 ft | 381 kts | 79° |
| 2026-05-03 20:54 | 32.30471 | -89.51818 | 33149 ft | 381 kts | 79° |
| 2026-05-03 20:55 | 32.31129 | -89.45599 | 33150 ft | 381 kts | 79° |
| 2026-05-03 20:55 | 32.31781 | -89.39419 | 33146 ft | 381 kts | 79° |
| 2026-05-03 20:56 | 32.32433 | -89.33198 | 33145 ft | 381 kts | 79° |
| 2026-05-03 20:56 | 32.33084 | -89.26977 | 33155 ft | 381 kts | 79° |
| 2026-05-03 20:57 | 32.33735 | -89.20746 | 33153 ft | 386 kts | 79° |
| 2026-05-03 20:57 | 32.34389 | -89.14371 | 33143 ft | 384 kts | 79° |
| 2026-05-03 20:58 | 32.35016 | -89.08265 | 33139 ft | 374 kts | 79° |
| 2026-05-03 20:58 | 32.35649 | -89.02131 | 33153 ft | 376 kts | 79° |
| 2026-05-03 20:59 | 32.36273 | -88.95991 | 33145 ft | 376 kts | 79° |
| 2026-05-03 20:59 | 32.36896 | -88.89850 | 33155 ft | 376 kts | 79° |
| 2026-05-03 21:00 | 32.37428 | -88.84750 | 33172 ft | 376 kts | 76° |
| 2026-05-03 21:00 | 32.38484 | -88.80831 | 33169 ft | 372 kts | 60° |
| 2026-05-03 21:00 | 32.39739 | -88.78171 | 33141 ft | 369 kts | 54° |
| 2026-05-03 21:01 | 32.42683 | -88.73318 | 33171 ft | 365 kts | 47° |
| 2026-05-03 21:01 | 32.45839 | -88.68618 | 33150 ft | 364 kts | 46° |
| 2026-05-03 21:02 | 32.49011 | -88.63931 | 33160 ft | 364 kts | 46° |
| 2026-05-03 21:02 | 32.52176 | -88.59247 | 33158 ft | 364 kts | 46° |
| 2026-05-03 21:03 | 32.55338 | -88.54553 | 33159 ft | 364 kts | 46° |
| 2026-05-03 21:03 | 32.58499 | -88.49862 | 33161 ft | 364 kts | 46° |
| 2026-05-03 21:04 | 32.61639 | -88.45200 | 32459 ft | 366 kts | 47° |
| 2026-05-03 21:04 | 32.63204 | -88.42865 | 32120 ft | 358 kts | 47° |
| 2026-05-03 21:04 | 32.64745 | -88.40570 | 31689 ft | 353 kts | 47° |
| 2026-05-03 21:05 | 32.66266 | -88.38306 | 31250 ft | 349 kts | 47° |
| 2026-05-03 21:05 | 32.67768 | -88.36066 | 30816 ft | 345 kts | 47° |
| 2026-05-03 21:05 | 32.69250 | -88.33853 | 30397 ft | 341 kts | 48° |
| 2026-05-03 21:05 | 32.70717 | -88.31666 | 29920 ft | 337 kts | 48° |
| 2026-05-03 21:06 | 32.72170 | -88.29494 | 29404 ft | 334 kts | 48° |
| 2026-05-03 21:06 | 32.73611 | -88.27341 | 28879 ft | 331 kts | 48° |
| 2026-05-03 21:06 | 32.75021 | -88.25234 | 28395 ft | 329 kts | 48° |
| 2026-05-03 21:06 | 32.76439 | -88.23113 | 27908 ft | 327 kts | 48° |
| 2026-05-03 21:07 | 32.77844 | -88.21009 | 27427 ft | 324 kts | 48° |
| 2026-05-03 21:07 | 32.79242 | -88.18916 | 26964 ft | 322 kts | 48° |
| 2026-05-03 21:07 | 32.80626 | -88.16841 | 26502 ft | 320 kts | 48° |
| 2026-05-03 21:07 | 32.82004 | -88.14775 | 26053 ft | 318 kts | 48° |
| 2026-05-03 21:08 | 32.83371 | -88.12724 | 25604 ft | 316 kts | 48° |
| 2026-05-03 21:08 | 32.84730 | -88.10684 | 25176 ft | 314 kts | 49° |
| 2026-05-03 21:08 | 32.86079 | -88.08657 | 24752 ft | 312 kts | 49° |
| 2026-05-03 21:08 | 32.87431 | -88.06628 | 24353 ft | 311 kts | 49° |
| 2026-05-03 21:09 | 32.88779 | -88.04597 | 24259 ft | 313 kts | 49° |
| 2026-05-03 21:09 | 32.90123 | -88.02577 | 24206 ft | 310 kts | 49° |
| 2026-05-03 21:09 | 32.91459 | -88.00568 | 24183 ft | 309 kts | 49° |
| 2026-05-03 21:09 | 32.92778 | -87.98581 | 24169 ft | 310 kts | 49° |
| 2026-05-03 21:10 | 32.94115 | -87.96565 | 24160 ft | 310 kts | 49° |
| 2026-05-03 21:10 | 32.95451 | -87.94549 | 24172 ft | 310 kts | 49° |
| 2026-05-03 21:10 | 32.96788 | -87.92534 | 24170 ft | 310 kts | 49° |
| 2026-05-03 21:10 | 32.98123 | -87.90521 | 24165 ft | 310 kts | 49° |
| 2026-05-03 21:11 | 32.99458 | -87.88504 | 24167 ft | 310 kts | 49° |
| 2026-05-03 21:11 | 33.00816 | -87.86457 | 24184 ft | 328 kts | 49° |
| 2026-05-03 21:11 | 33.02300 | -87.84216 | 24209 ft | 360 kts | 49° |
| 2026-05-03 21:11 | 33.03890 | -87.81803 | 24211 ft | 377 kts | 49° |
| 2026-05-03 21:12 | 33.05507 | -87.79355 | 23555 ft | 376 kts | 49° |
| 2026-05-03 21:12 | 33.07116 | -87.76917 | 22733 ft | 372 kts | 49° |
| 2026-05-03 21:12 | 33.08712 | -87.74499 | 21964 ft | 368 kts | 49° |
| 2026-05-03 21:12 | 33.10264 | -87.72143 | 21232 ft | 364 kts | 49° |
| 2026-05-03 21:13 | 33.11822 | -87.69782 | 20483 ft | 361 kts | 49° |
| 2026-05-03 21:13 | 33.13362 | -87.67442 | 19955 ft | 353 kts | 49° |
| 2026-05-03 21:13 | 33.14855 | -87.65169 | 19480 ft | 345 kts | 49° |
| 2026-05-03 21:13 | 33.16330 | -87.62931 | 18884 ft | 342 kts | 49° |
| 2026-05-03 21:14 | 33.17792 | -87.60708 | 18269 ft | 339 kts | 49° |
| 2026-05-03 21:14 | 33.19242 | -87.58500 | 17632 ft | 336 kts | 49° |
| 2026-05-03 21:14 | 33.20508 | -87.56173 | 16979 ft | 335 kts | 62° |
| 2026-05-03 21:14 | 33.21429 | -87.53628 | 16374 ft | 333 kts | 66° |
| 2026-05-03 21:15 | 33.22287 | -87.51077 | 15780 ft | 329 kts | 64° |
| 2026-05-03 21:15 | 33.23229 | -87.48603 | 15201 ft | 326 kts | 62° |
| 2026-05-03 21:15 | 33.24185 | -87.46165 | 14630 ft | 323 kts | 62° |
| 2026-05-03 21:15 | 33.25136 | -87.43754 | 14073 ft | 319 kts | 62° |
| 2026-05-03 21:16 | 33.26056 | -87.41392 | 13482 ft | 316 kts | 62° |
| 2026-05-03 21:16 | 33.26979 | -87.39020 | 12900 ft | 313 kts | 63° |
| 2026-05-03 21:16 | 33.27885 | -87.36667 | 12344 ft | 310 kts | 63° |
| 2026-05-03 21:16 | 33.28791 | -87.34342 | 11796 ft | 307 kts | 63° |
| 2026-05-03 21:17 | 33.29693 | -87.32041 | 11255 ft | 304 kts | 63° |
| 2026-05-03 21:17 | 33.30286 | -87.30526 | 10906 ft | 303 kts | 63° |
| 2026-05-03 21:17 | 33.31467 | -87.27502 | 10232 ft | 298 kts | 63° |
| 2026-05-03 21:17 | 33.32339 | -87.25266 | 9701 ft | 295 kts | 63° |
| 2026-05-03 21:18 | 33.33201 | -87.23051 | 9156 ft | 292 kts | 62° |
| 2026-05-03 21:18 | 33.34043 | -87.20888 | 8645 ft | 289 kts | 62° |
| 2026-05-03 21:18 | 33.34885 | -87.18720 | 8140 ft | 286 kts | 63° |
| 2026-05-03 21:18 | 33.35718 | -87.16574 | 7634 ft | 283 kts | 62° |
| 2026-05-03 21:19 | 33.36540 | -87.14448 | 7150 ft | 280 kts | 62° |
| 2026-05-03 21:19 | 33.37360 | -87.12342 | 6675 ft | 277 kts | 62° |
| 2026-05-03 21:19 | 33.38170 | -87.10256 | 6200 ft | 275 kts | 62° |
| 2026-05-03 21:19 | 33.38995 | -87.08137 | 6127 ft | 282 kts | 63° |
| 2026-05-03 21:20 | 33.39799 | -87.06047 | 5789 ft | 274 kts | 63° |
| 2026-05-03 21:20 | 33.40559 | -87.04072 | 5608 ft | 254 kts | 62° |
| 2026-05-03 21:20 | 33.41310 | -87.02229 | 5265 ft | 240 kts | 60° |
| 2026-05-03 21:20 | 33.42076 | -87.00498 | 4843 ft | 232 kts | 57° |
| 2026-05-03 21:21 | 33.42930 | -86.98878 | 4347 ft | 229 kts | 53° |
| 2026-05-03 21:21 | 33.43827 | -86.97311 | 3886 ft | 227 kts | 53° |
| 2026-05-03 21:21 | 33.44723 | -86.95758 | 3437 ft | 224 kts | 52° |
| 2026-05-03 21:21 | 33.45610 | -86.94225 | 3158 ft | 235 kts | 52° |
| 2026-05-03 21:22 | 33.46506 | -86.92685 | 3021 ft | 212 kts | 52° |
| 2026-05-03 21:22 | 33.47310 | -86.91290 | 2803 ft | 197 kts | 51° |
| 2026-05-03 21:22 | 33.48035 | -86.90046 | 2681 ft | 171 kts | 50° |
| 2026-05-03 21:22 | 33.48687 | -86.88907 | 2581 ft | 161 kts | 50° |
| 2026-05-03 21:23 | 33.49314 | -86.87843 | 2550 ft | 146 kts | 49° |
| 2026-05-03 21:23 | 33.49858 | -86.86880 | 2328 ft | 134 kts | 54° |
| 2026-05-03 21:23 | 33.50385 | -86.85885 | 2246 ft | 142 kts | 52° |
| 2026-05-03 21:23 | 33.50927 | -86.84885 | 2246 ft | 143 kts | 53° |
| 2026-05-03 21:24 | 33.51454 | -86.83857 | 2143 ft | 142 kts | 57° |
| 2026-05-03 21:24 | 33.51993 | -86.82883 | 2043 ft | 141 kts | 46° |
| 2026-05-03 21:24 | 33.52703 | -86.82087 | 1778 ft | 141 kts | 37° |
| 2026-05-03 21:24 | 33.53291 | -86.81142 | 1524 ft | 148 kts | 57° |
| 2026-05-03 21:25 | 33.53753 | -86.80087 | 1350 ft | 139 kts | 54° |
| 2026-05-03 21:25 | 33.54322 | -86.79141 | 1183 ft | 144 kts | 46° |
| 2026-05-03 21:25 | 33.54896 | -86.78175 | 904 ft | 139 kts | 49° |
| 2026-05-03 21:25 | 33.55426 | -86.77238 | 647 ft | 132 kts | 51° |
| 2026-05-03 21:26 | 33.55929 | -86.76380 | 610 ft | 115 kts | 56° |
| 2026-05-03 21:26 | 33.56233 | -86.75851 | 628 ft | 42 kts | 57° |
| 2026-05-03 21:26 | 33.56341 | -86.75616 | 625 ft | 15 kts | 78° |
| 2026-05-03 21:26 | 33.56355 | -86.75477 | 626 ft | 18 kts | 86° |
| 2026-05-03 21:27 | 33.56363 | -86.75423 | 635 ft | 7 kts | 65° |
| 2026-05-03 21:27 | 33.56380 | -86.75385 | 633 ft | 1 kts | 84° |
| 2026-05-03 21:27 | 33.56379 | -86.75376 | 630 ft | 0 kts | 92° |
| 2026-05-03 21:27 | 33.56375 | -86.75362 | 630 ft | 3 kts | 124° |
| 2026-05-03 21:28 | 33.56350 | -86.75339 | 627 ft | 2 kts | 146° |
| 2026-05-03 21:28 | 33.56324 | -86.75336 | 629 ft | 6 kts | 188° |
| 2026-05-03 21:28 | 33.56305 | -86.75338 | 630 ft | 0 kts | 180° |
| 2026-05-03 21:28 | 33.56286 | -86.75334 | 627 ft | 0 kts | 163° |
| 2026-05-03 21:29 | 33.56280 | -86.75332 | 627 ft | 0 kts | 160° |
| 2026-05-03 21:29 | 33.56259 | -86.75318 | 624 ft | 2 kts | 144° |
| 2026-05-03 21:29 | 33.56254 | -86.75314 | 633 ft | 1 kts | 144° |
| 2026-05-03 21:29 | 33.56250 | -86.75311 | 633 ft | 2 kts | 144° |
| 2026-05-03 21:30 | 33.56248 | -86.75309 | 633 ft | 0 kts | 144° |
| 2026-05-03 21:30 | 33.56245 | -86.75306 | 632 ft | 0 kts | 145° |
| 2026-05-03 21:30 | 33.56244 | -86.75306 | 632 ft | 0 kts | 145° |